createdAt,value
2023-01-21T00:01:07.755Z,101630.91
2023-01-21T00:03:34.788Z,101639.59
2023-01-21T00:06:02.217Z,101628.56
2023-01-21T00:08:29.238Z,101632.00
2023-01-21T00:10:56.269Z,101636.25
2023-01-21T00:13:23.318Z,101635.00
2023-01-21T00:15:50.452Z,101642.09
2023-01-21T00:18:17.517Z,101633.53
2023-01-21T00:20:46.672Z,101632.72
2023-01-21T00:23:13.638Z,101638.09
2023-01-21T00:25:40.560Z,101629.38
2023-01-21T00:28:07.591Z,101642.72
2023-01-21T00:30:35.638Z,101641.72
2023-01-21T00:33:03.747Z,101640.72
2023-01-21T00:35:30.893Z,101665.69
2023-01-21T00:37:57.857Z,101652.88
2023-01-21T00:40:26.169Z,101663.34
2023-01-21T00:42:53.110Z,101651.59
2023-01-21T00:45:20.224Z,101654.50
2023-01-21T00:47:47.566Z,101657.38
2023-01-21T00:50:14.782Z,101660.94
2023-01-21T00:52:41.861Z,101668.31
2023-01-21T00:55:09.307Z,101674.91
2023-01-21T00:57:36.389Z,101680.63
2023-01-21T01:00:04.653Z,101681.09
2023-01-21T01:02:31.606Z,101689.38
2023-01-21T01:04:58.735Z,101684.34
2023-01-21T01:07:25.827Z,101689.81
2023-01-21T01:09:53.207Z,101683.06
2023-01-21T01:12:20.208Z,101686.25
2023-01-21T01:14:47.673Z,101694.72
2023-01-21T01:17:14.644Z,101688.47
2023-01-21T01:19:41.571Z,101704.31
2023-01-21T01:22:08.506Z,101709.25
2023-01-21T01:24:35.463Z,101709.25
2023-01-21T01:27:04.195Z,101708.47
2023-01-21T01:29:31.265Z,101712.03
2023-01-21T01:31:58.211Z,101717.38
2023-01-21T01:34:25.262Z,101725.53
2023-01-21T01:36:52.284Z,101725.53
2023-01-21T01:39:19.282Z,101715.47
2023-01-21T01:41:46.286Z,101711.63
2023-01-21T01:45:02.326Z,101710.50
2023-01-21T01:47:58.253Z,101710.63
2023-01-21T01:50:30.105Z,101709.72
2023-01-21T01:53:01.296Z,101707.94
2023-01-21T01:55:35.854Z,101714.66
2023-01-21T01:58:07.598Z,101713.19
2023-01-21T02:00:34.945Z,101723.47
2023-01-21T02:03:20.849Z,101713.28
2023-01-21T02:05:48.408Z,101715.38
2023-01-21T02:08:15.950Z,101717.06
2023-01-21T02:10:43.029Z,101721.41
2023-01-21T02:13:10.429Z,101734.34
2023-01-21T02:16:10.478Z,101723.31
2023-01-21T02:19:21.394Z,101723.19
2023-01-21T02:22:07.133Z,101731.22
2023-01-21T02:25:19.911Z,101733.53
2023-01-21T02:28:17.896Z,101726.13
2023-01-21T02:31:22.129Z,101733.25
2023-01-21T02:34:14.347Z,101739.97
2023-01-21T02:37:04.153Z,101738.31
2023-01-21T02:39:57.382Z,101742.16
2023-01-21T02:42:45.287Z,101731.44
2023-01-21T02:45:27.356Z,101738.34
2023-01-21T02:48:11.185Z,101739.25
2023-01-21T02:50:51.392Z,101743.00
2023-01-21T02:53:29.032Z,101736.41
2023-01-21T02:56:04.015Z,101745.44
2023-01-21T02:58:39.352Z,101731.97
2023-01-21T03:01:15.164Z,101729.41
2023-01-21T03:04:10.943Z,101728.41
2023-01-21T03:07:08.786Z,101736.13
2023-01-21T03:09:36.576Z,101731.78
2023-01-21T03:12:19.993Z,101740.47
2023-01-21T03:15:31.785Z,101745.03
2023-01-21T03:18:25.295Z,101748.59
2023-01-21T03:20:58.581Z,101760.00
2023-01-21T03:23:37.850Z,101752.97
2023-01-21T03:26:07.482Z,101748.13
2023-01-21T03:28:41.695Z,101756.25
2023-01-21T03:31:24.175Z,101754.56
2023-01-21T03:33:55.510Z,101746.06
2023-01-21T03:36:34.828Z,101746.06
2023-01-21T03:39:13.246Z,101742.50
2023-01-21T03:41:40.780Z,101748.63
2023-01-21T03:44:08.089Z,101753.88
2023-01-21T03:47:03.306Z,101757.66
2023-01-21T03:49:44.645Z,101747.06
2023-01-21T03:52:13.864Z,101750.31
2023-01-21T03:54:41.335Z,101750.31
2023-01-21T03:57:08.313Z,101736.56
2023-01-21T03:59:35.259Z,101741.03
2023-01-21T04:02:02.261Z,101744.28
2023-01-21T04:04:29.235Z,101739.72
2023-01-21T04:06:56.226Z,101743.09
2023-01-21T04:09:23.251Z,101745.75
2023-01-21T04:11:50.189Z,101738.13
2023-01-21T04:14:17.110Z,101739.81
2023-01-21T04:16:44.272Z,101736.25
2023-01-21T04:19:11.217Z,101739.72
2023-01-21T04:21:38.211Z,101750.00
2023-01-21T04:24:05.709Z,101729.34
2023-01-21T04:26:32.653Z,101741.31
2023-01-21T04:28:59.613Z,101745.69
2023-01-21T04:31:26.566Z,101755.94
2023-01-21T04:33:53.596Z,101758.41
2023-01-21T04:36:20.533Z,101753.97
2023-01-21T04:38:47.464Z,101755.63
2023-01-21T04:41:14.409Z,101748.81
2023-01-21T04:43:41.355Z,101756.63
2023-01-21T04:46:08.399Z,101756.63
2023-01-21T04:48:35.451Z,101768.81
2023-01-21T04:51:02.552Z,101763.66
2023-01-21T04:53:29.549Z,101749.81
2023-01-21T04:55:56.524Z,101751.84
2023-01-21T04:58:23.852Z,101753.81
2023-01-21T05:00:50.877Z,101759.41
2023-01-21T05:03:17.868Z,101755.94
2023-01-21T05:05:44.934Z,101766.34
2023-01-21T05:08:11.914Z,101760.63
2023-01-21T05:10:38.877Z,101771.81
2023-01-21T05:13:05.964Z,101772.38
2023-01-21T05:15:33.004Z,101778.19
2023-01-21T05:18:00.633Z,101774.94
2023-01-21T05:20:27.613Z,101778.84
2023-01-21T05:22:54.585Z,101785.06
2023-01-21T05:25:21.545Z,101782.81
2023-01-21T05:27:55.444Z,101785.69
2023-01-21T05:30:22.761Z,101789.38
2023-01-21T05:32:54.368Z,101788.78
2023-01-21T05:35:23.600Z,101788.97
2023-01-21T05:37:51.000Z,101795.44
2023-01-21T05:40:19.170Z,101795.63
2023-01-21T05:42:46.875Z,101794.72
2023-01-21T05:45:14.422Z,101805.13
2023-01-21T05:47:42.068Z,101806.81
2023-01-21T05:50:10.637Z,101807.69
2023-01-21T05:52:37.955Z,101798.31
2023-01-21T05:55:05.788Z,101808.81
2023-01-21T05:57:33.229Z,101801.09
2023-01-21T06:00:00.196Z,101808.22
2023-01-21T06:02:27.521Z,101811.59
2023-01-21T06:04:54.608Z,101819.09
2023-01-21T06:07:21.572Z,101817.19
2023-01-21T06:09:48.531Z,101811.25
2023-01-21T06:12:15.458Z,101808.47
2023-01-21T06:14:42.413Z,101806.63
2023-01-21T06:17:09.355Z,101803.25
2023-01-21T06:19:36.323Z,101819.38
2023-01-21T06:22:03.292Z,101815.00
2023-01-21T06:24:33.385Z,101824.69
2023-01-21T06:27:00.322Z,101829.84
2023-01-21T06:29:27.320Z,101827.09
2023-01-21T06:31:54.353Z,101836.25
2023-01-21T06:34:21.367Z,101835.38
2023-01-21T06:36:48.292Z,101830.78
2023-01-21T06:39:15.323Z,101835.72
2023-01-21T06:41:42.539Z,101834.03
2023-01-21T06:44:09.495Z,101838.41
2023-01-21T06:46:37.481Z,101843.75
2023-01-21T06:49:06.535Z,101841.97
2023-01-21T06:51:33.509Z,101849.56
2023-01-21T06:54:00.479Z,101837.84
2023-01-21T06:56:27.484Z,101832.47
2023-01-21T06:58:54.458Z,101863.94
2023-01-21T07:01:21.464Z,101850.75
2023-01-21T07:03:48.384Z,101838.91
2023-01-21T07:06:15.294Z,101844.31
2023-01-21T07:08:42.248Z,101855.50
2023-01-21T07:11:09.220Z,101850.38
2023-01-21T07:13:36.190Z,101852.75
2023-01-21T07:16:05.956Z,101847.78
2023-01-21T07:18:33.816Z,101839.19
2023-01-21T07:21:01.149Z,101853.66
2023-01-21T07:23:30.049Z,101858.69
2023-01-21T07:25:57.013Z,101854.44
2023-01-21T07:28:24.015Z,101850.97
2023-01-21T07:30:51.017Z,101857.97
2023-01-21T07:33:18.068Z,101867.69
2023-01-21T07:35:45.076Z,101866.13
2023-01-21T07:38:12.024Z,101871.16
2023-01-21T07:40:38.939Z,101870.25
2023-01-21T07:43:05.875Z,101868.25
2023-01-21T07:45:32.813Z,101890.41
2023-01-21T07:48:00.022Z,101880.22
2023-01-21T07:50:27.751Z,101872.81
2023-01-21T07:52:55.131Z,101875.63
2023-01-21T07:55:22.746Z,101882.88
2023-01-21T07:57:49.666Z,101881.88
2023-01-21T08:00:17.607Z,101879.41
2023-01-21T08:02:44.917Z,101880.59
2023-01-21T08:05:12.272Z,101885.06
2023-01-21T08:07:39.195Z,101872.09
2023-01-21T08:10:06.395Z,101872.75
2023-01-21T08:12:33.447Z,101883.94
2023-01-21T08:15:00.386Z,101884.16
2023-01-21T08:17:27.352Z,101884.59
2023-01-21T08:19:54.488Z,101873.25
2023-01-21T08:22:21.482Z,101877.06
2023-01-21T08:24:48.686Z,101881.91
2023-01-21T08:27:15.643Z,101880.00
2023-01-21T08:29:42.604Z,101880.63
2023-01-21T08:32:09.914Z,101882.53
2023-01-21T08:34:37.103Z,101887.06
2023-01-21T08:37:04.039Z,101878.53
2023-01-21T08:39:30.960Z,101875.97
2023-01-21T08:41:57.952Z,101878.88
2023-01-21T08:44:24.915Z,101876.50
2023-01-21T08:46:51.896Z,101880.16
2023-01-21T08:49:18.959Z,101885.41
2023-01-21T08:51:46.041Z,101865.59
2023-01-21T08:54:13.005Z,101879.56
2023-01-21T08:56:39.926Z,101882.34
2023-01-21T08:59:07.069Z,101870.25
2023-01-21T09:01:36.116Z,101877.00
2023-01-21T09:04:03.109Z,101872.16
2023-01-21T09:06:30.695Z,101867.31
2023-01-21T09:08:58.379Z,101873.53
2023-01-21T09:11:27.208Z,101863.53
2023-01-21T09:13:54.162Z,101875.63
2023-01-21T09:16:23.006Z,101877.63
2023-01-21T09:18:50.442Z,101882.34
2023-01-21T09:21:17.543Z,101868.69
2023-01-21T09:23:44.775Z,101888.72
2023-01-21T09:26:23.020Z,101883.75
2023-01-21T09:28:58.898Z,101879.69
2023-01-21T09:31:28.646Z,101887.72
2023-01-21T09:34:00.577Z,101876.13
2023-01-21T09:36:31.221Z,101873.66
2023-01-21T09:38:58.752Z,101884.91
2023-01-21T09:41:40.054Z,101896.06
2023-01-21T09:44:35.534Z,101885.13
2023-01-21T09:47:22.967Z,101883.84
2023-01-21T09:50:09.630Z,101891.44
2023-01-21T09:52:44.985Z,101885.06
2023-01-21T09:55:19.662Z,101886.50
2023-01-21T09:58:01.936Z,101883.81
2023-01-21T10:00:55.371Z,101881.53
2023-01-21T10:03:58.029Z,101879.13
2023-01-21T10:06:38.384Z,101879.84
2023-01-21T10:09:16.824Z,101878.34
2023-01-21T10:11:52.999Z,101875.34
2023-01-21T10:14:58.940Z,101882.50
2023-01-21T10:17:53.309Z,101881.28
2023-01-21T10:20:30.361Z,101870.84
2023-01-21T10:23:15.511Z,101865.25
2023-01-21T10:25:48.286Z,101864.34
2023-01-21T10:28:25.362Z,101865.94
2023-01-21T10:31:07.465Z,101863.97
2023-01-21T10:33:34.891Z,101858.22
2023-01-21T10:36:35.901Z,101859.56
2023-01-21T10:39:22.364Z,101854.88
2023-01-21T10:42:49.803Z,101849.19
2023-01-21T10:45:42.728Z,101850.66
2023-01-21T10:48:31.615Z,101852.09
2023-01-21T10:51:20.731Z,101843.94
2023-01-21T10:54:03.693Z,101850.44
2023-01-21T10:56:54.815Z,101849.56
2023-01-21T10:59:27.940Z,101850.91
2023-01-21T11:02:32.859Z,101845.00
2023-01-21T11:05:05.443Z,101845.28
2023-01-21T11:07:39.186Z,101842.28
2023-01-21T11:10:07.595Z,101841.53
2023-01-21T11:12:34.932Z,101835.75
2023-01-21T11:15:13.590Z,101818.50
2023-01-21T11:17:44.953Z,101827.94
2023-01-21T11:20:25.552Z,101813.94
2023-01-21T11:22:52.646Z,101806.47
2023-01-21T11:25:41.416Z,101803.00
2023-01-21T11:28:27.201Z,101801.88
2023-01-21T11:31:13.286Z,101803.47
2023-01-21T11:33:42.812Z,101796.69
2023-01-21T11:36:14.726Z,101800.41
2023-01-21T11:38:43.162Z,101787.78
2023-01-21T11:41:12.981Z,101789.47
2023-01-21T11:43:51.455Z,101779.13
2023-01-21T11:46:38.401Z,101779.31
2023-01-21T11:49:08.424Z,101769.22
2023-01-21T11:51:37.677Z,101777.72
2023-01-21T11:54:27.783Z,101771.19
2023-01-21T11:57:01.444Z,101759.50
2023-01-21T11:59:43.831Z,101753.38
2023-01-21T12:02:35.901Z,101756.47
2023-01-21T12:05:12.214Z,101757.09
2023-01-21T12:07:42.459Z,101753.91
2023-01-21T12:10:12.560Z,101752.22
2023-01-21T12:13:30.203Z,101751.59
2023-01-21T12:16:37.335Z,101744.72
2023-01-21T12:19:17.852Z,101746.75
2023-01-21T12:22:18.506Z,101747.63
2023-01-21T12:24:57.202Z,101742.22
2023-01-21T12:28:02.879Z,101731.41
2023-01-21T12:31:02.366Z,101734.00
2023-01-21T12:33:32.081Z,101724.72
2023-01-21T12:36:19.268Z,101725.06
2023-01-21T12:39:11.377Z,101721.28
2023-01-21T12:41:40.350Z,101735.34
2023-01-21T12:44:28.408Z,101729.38
2023-01-21T12:47:04.090Z,101732.00
2023-01-21T12:49:59.148Z,101732.78
2023-01-21T12:52:44.294Z,101728.31
2023-01-21T12:55:39.698Z,101729.75
2023-01-21T12:58:14.435Z,101716.91
2023-01-21T13:00:48.927Z,101722.34
2023-01-21T13:03:37.650Z,101742.31
2023-01-21T13:06:52.776Z,101734.19
2023-01-21T13:09:46.628Z,101729.66
2023-01-21T13:12:26.658Z,101731.53
2023-01-21T13:15:09.780Z,101728.88
2023-01-21T13:17:40.840Z,101723.88
2023-01-21T13:20:17.152Z,101734.38
2023-01-21T13:23:21.449Z,101724.22
2023-01-21T13:26:21.783Z,101708.75
2023-01-21T13:28:57.725Z,101709.72
2023-01-21T13:31:48.654Z,101709.91
2023-01-21T13:34:22.367Z,101712.66
2023-01-21T13:37:41.279Z,101709.47
2023-01-21T13:41:02.704Z,101700.06
2023-01-21T13:44:17.488Z,101685.66
2023-01-21T13:47:13.976Z,101680.31
2023-01-21T13:50:01.162Z,101668.28
2023-01-21T13:52:47.301Z,101682.28
2023-01-21T13:56:07.223Z,101689.81
2023-01-21T13:58:56.356Z,101697.31
2023-01-21T14:01:44.519Z,101696.41
2023-01-21T14:04:37.046Z,101687.53
2023-01-21T14:07:28.636Z,101686.47
2023-01-21T14:10:20.465Z,101671.03
2023-01-21T14:13:22.042Z,101661.50
2023-01-21T14:16:02.991Z,101646.00
2023-01-21T14:19:11.998Z,101633.75
2023-01-21T14:22:22.475Z,101608.06
2023-01-21T14:25:23.239Z,101606.31
2023-01-21T14:28:09.217Z,101595.81
2023-01-21T14:31:15.147Z,101640.53
2023-01-21T14:33:53.107Z,101652.47
2023-01-21T14:36:48.997Z,101649.00
2023-01-21T14:39:42.159Z,101686.88
2023-01-21T14:42:16.407Z,101669.59
2023-01-21T14:44:49.105Z,101663.53
2023-01-21T14:47:25.078Z,101663.53
2023-01-21T14:49:57.484Z,101655.06
2023-01-21T14:52:44.660Z,101658.53
2023-01-21T14:55:30.665Z,101664.50
2023-01-21T14:58:00.881Z,101665.47
2023-01-21T15:00:35.192Z,101655.22
2023-01-21T15:03:27.301Z,101648.28
2023-01-21T15:06:00.472Z,101637.88
2023-01-21T15:08:31.280Z,101604.13
2023-01-21T15:11:08.164Z,101629.63
2023-01-21T15:13:35.891Z,101625.03
2023-01-21T15:16:17.570Z,101619.44
2023-01-21T15:19:19.087Z,101624.09
2023-01-21T15:22:20.617Z,101602.09
2023-01-21T15:25:20.238Z,101595.59
2023-01-21T15:28:43.408Z,101608.00
2023-01-21T15:31:20.659Z,101608.38
2023-01-21T15:34:04.401Z,101593.09
2023-01-21T15:36:35.591Z,101603.03
2023-01-21T15:39:11.971Z,101611.75
2023-01-21T15:42:29.882Z,101621.63
2023-01-21T15:45:23.964Z,101604.47
2023-01-21T15:48:36.501Z,101596.13
2023-01-21T15:51:20.827Z,101625.00
2023-01-21T15:54:04.286Z,101628.19
2023-01-21T15:56:48.903Z,101615.66
2023-01-21T15:59:52.347Z,101626.38
2023-01-21T16:02:32.097Z,101615.94
2023-01-21T16:05:29.258Z,101619.13
2023-01-21T16:08:08.185Z,101626.38
2023-01-21T16:11:06.545Z,101622.75
2023-01-21T16:14:07.245Z,101616.22
2023-01-21T16:17:06.857Z,101621.81
2023-01-21T16:19:40.997Z,101626.75
2023-01-21T16:22:11.542Z,101618.84
2023-01-21T16:24:47.553Z,101617.97
2023-01-21T16:27:28.274Z,101607.47
2023-01-21T16:29:57.740Z,101616.59
2023-01-21T16:32:24.918Z,101616.59
2023-01-21T16:34:51.921Z,101619.09
2023-01-21T16:37:23.223Z,101623.34
2023-01-21T16:39:55.622Z,101631.25
2023-01-21T16:42:44.136Z,101629.75
2023-01-21T16:45:22.913Z,101624.59
2023-01-21T16:47:58.789Z,101638.34
2023-01-21T16:50:31.176Z,101632.31
2023-01-21T16:53:00.618Z,101635.63
2023-01-21T16:55:30.884Z,101638.88
2023-01-21T16:57:59.460Z,101638.00
2023-01-21T17:00:32.705Z,101639.38
2023-01-21T17:03:01.014Z,101627.03
2023-01-21T17:05:34.162Z,101625.97
2023-01-21T17:08:04.540Z,101634.19
2023-01-21T17:10:39.588Z,101649.50
2023-01-21T17:13:15.880Z,101627.03
2023-01-21T17:16:00.002Z,101630.59
2023-01-21T17:18:37.738Z,101636.75
2023-01-21T17:21:13.723Z,101641.09
2023-01-21T17:23:52.721Z,101636.06
2023-01-21T17:26:37.991Z,101628.53
2023-01-21T17:29:18.889Z,101636.25
2023-01-21T17:31:55.218Z,101630.13
2023-01-21T17:34:26.560Z,101636.16
2023-01-21T17:36:54.791Z,101630.13
2023-01-21T17:39:46.337Z,101644.66
2023-01-21T17:42:21.064Z,101649.81
2023-01-21T17:44:51.161Z,101645.56
2023-01-21T17:47:39.514Z,101641.09
2023-01-21T17:50:33.095Z,101654.66
2023-01-21T17:53:07.195Z,101649.41
2023-01-21T17:55:40.201Z,101649.31
2023-01-21T17:58:31.709Z,101641.53
2023-01-21T18:01:02.597Z,101652.69
2023-01-21T18:03:29.541Z,101650.09
2023-01-21T18:05:57.021Z,101648.53
2023-01-21T18:08:24.688Z,101651.19
2023-01-21T18:10:51.853Z,101657.22
2023-01-21T18:13:21.701Z,101651.19
2023-01-21T18:15:51.681Z,101656.44
2023-01-21T18:18:27.463Z,101651.28
2023-01-21T18:20:55.093Z,101651.41
2023-01-21T18:23:22.867Z,101665.16
2023-01-21T18:25:52.982Z,101651.50
2023-01-21T18:28:26.688Z,101657.44
2023-01-21T18:30:59.579Z,101654.97
2023-01-21T18:33:26.847Z,101666.34
2023-01-21T18:35:53.994Z,101657.84
2023-01-21T18:38:27.596Z,101667.34
2023-01-21T18:40:58.092Z,101666.34
2023-01-21T18:43:26.279Z,101666.25
2023-01-21T18:45:54.649Z,101668.13
2023-01-21T18:48:29.753Z,101668.13
2023-01-21T18:50:56.848Z,101676.81
2023-01-21T18:53:23.983Z,101672.56
2023-01-21T18:55:55.639Z,101681.88
2023-01-21T18:58:22.956Z,101681.78
2023-01-21T19:00:50.208Z,101668.03
2023-01-21T19:03:17.796Z,101678.22
2023-01-21T19:05:50.026Z,101672.88
2023-01-21T19:08:22.085Z,101674.47
2023-01-21T19:10:49.082Z,101680.41
2023-01-21T19:13:16.208Z,101671.78
2023-01-21T19:15:43.690Z,101680.41
2023-01-21T19:18:12.739Z,101679.50
2023-01-21T19:20:41.553Z,101682.97
2023-01-21T19:23:15.655Z,101676.03
2023-01-21T19:25:49.636Z,101674.25
2023-01-21T19:28:16.712Z,101686.34
2023-01-21T19:30:45.260Z,101679.50
2023-01-21T19:33:12.794Z,101679.59
2023-01-21T19:35:43.960Z,101695.16
2023-01-21T19:38:20.747Z,101682.19
2023-01-21T19:40:47.766Z,101693.25
2023-01-21T19:43:17.323Z,101692.47
2023-01-21T19:45:44.771Z,101688.22
2023-01-21T19:48:22.195Z,101702.06
2023-01-21T19:50:49.685Z,101690.09
2023-01-21T19:53:21.190Z,101705.53
2023-01-21T19:55:50.678Z,101713.38
2023-01-21T19:58:21.279Z,101700.38
2023-01-21T20:00:51.131Z,101709.78
2023-01-21T20:03:21.211Z,101725.34
2023-01-21T20:06:01.057Z,101714.16
2023-01-21T20:08:30.717Z,101718.31
2023-01-21T20:10:57.737Z,101713.16
2023-01-21T20:13:26.101Z,101720.09
2023-01-21T20:15:53.366Z,101716.81
2023-01-21T20:18:28.218Z,101722.97
2023-01-21T20:20:55.673Z,101722.28
2023-01-21T20:23:23.770Z,101728.38
2023-01-21T20:25:55.549Z,101725.22
2023-01-21T20:28:26.148Z,101733.16
2023-01-21T20:30:54.597Z,101730.78
2023-01-21T20:33:23.725Z,101734.41
2023-01-21T20:35:55.809Z,101733.72
2023-01-21T20:38:37.224Z,101737.19
2023-01-21T20:41:05.998Z,101734.69
2023-01-21T20:43:34.144Z,101740.06
2023-01-21T20:46:04.945Z,101742.72
2023-01-21T20:48:41.572Z,101745.41
2023-01-21T20:51:09.012Z,101745.50
2023-01-21T20:53:37.405Z,101755.81
2023-01-21T20:56:34.188Z,101749.03
2023-01-21T20:59:01.317Z,101753.22
2023-01-21T21:01:29.212Z,101757.66
2023-01-21T21:03:56.213Z,101755.00
2023-01-21T21:06:26.790Z,101761.91
2023-01-21T21:08:53.993Z,101762.91
2023-01-21T21:11:21.068Z,101759.44
2023-01-21T21:13:51.701Z,101763.78
2023-01-21T21:16:24.024Z,101753.69
2023-01-21T21:18:51.568Z,101764.19
2023-01-21T21:21:22.499Z,101775.38
2023-01-21T21:23:51.576Z,101770.25
2023-01-21T21:26:24.361Z,101768.66
2023-01-21T21:28:57.460Z,101770.44
2023-01-21T21:31:26.134Z,101774.78
2023-01-21T21:33:53.650Z,101773.19
2023-01-21T21:36:23.874Z,101770.59
2023-01-21T21:38:55.542Z,101787.84
2023-01-21T21:41:43.630Z,101780.09
2023-01-21T21:44:11.760Z,101790.31
2023-01-21T21:46:57.979Z,101774.97
2023-01-21T21:49:25.087Z,101781.91
2023-01-21T21:51:52.306Z,101789.63
2023-01-21T21:54:19.347Z,101802.50
2023-01-21T21:56:47.199Z,101796.47
2023-01-21T21:59:15.038Z,101792.09
2023-01-21T22:01:43.480Z,101809.25
2023-01-21T22:04:11.092Z,101786.94
2023-01-21T22:06:38.897Z,101801.44
2023-01-21T22:09:06.547Z,101809.25
2023-01-21T22:11:33.944Z,101801.72
2023-01-21T22:14:04.638Z,101809.44
2023-01-21T22:16:32.648Z,101813.59
2023-01-21T22:19:00.593Z,101805.06
2023-01-21T22:21:32.038Z,101811.81
2023-01-21T22:24:00.557Z,101801.34
2023-01-21T22:26:28.661Z,101811.75
2023-01-21T22:28:56.185Z,101816.78
2023-01-21T22:31:29.131Z,101803.81
2023-01-21T22:33:58.247Z,101803.63
2023-01-21T22:36:28.179Z,101815.50
2023-01-21T22:38:55.343Z,101821.53
2023-01-21T22:41:24.382Z,101829.38
2023-01-21T22:43:52.724Z,101821.66
2023-01-21T22:46:30.066Z,101824.31
2023-01-21T22:48:57.657Z,101816.78
2023-01-21T22:51:25.151Z,101821.94
2023-01-21T22:53:53.603Z,101827.09
2023-01-21T22:56:39.897Z,101824.53
2023-01-21T22:59:11.131Z,101825.31
2023-01-21T23:01:38.199Z,101832.94
2023-01-21T23:04:05.431Z,101840.56
2023-01-21T23:06:32.388Z,101833.53
2023-01-21T23:08:59.445Z,101845.50
2023-01-21T23:11:26.470Z,101824.81
2023-01-21T23:13:55.359Z,101827.38
2023-01-21T23:16:22.833Z,101829.97
2023-01-21T23:18:52.130Z,101820.56
2023-01-21T23:21:22.281Z,101831.75
2023-01-21T23:23:49.810Z,101841.34
2023-01-21T23:26:19.306Z,101836.00
2023-01-21T23:28:47.319Z,101837.59
2023-01-21T23:31:17.270Z,101828.06
2023-01-21T23:33:48.667Z,101844.41
2023-01-21T23:36:15.782Z,101838.56
2023-01-21T23:38:43.268Z,101845.63
2023-01-21T23:41:13.744Z,101837.09
2023-01-21T23:43:41.091Z,101835.63
2023-01-21T23:46:12.627Z,101835.63
2023-01-21T23:48:40.127Z,101843.34
2023-01-21T23:51:14.547Z,101838.28
2023-01-21T23:53:41.733Z,101832.41
2023-01-21T23:56:23.283Z,101832.41
2023-01-21T23:58:50.488Z,101828.16
